Terminal Aerodrome Forecast
Issued by NWS

Home | Current Version | Previous Version | Text Only | Print | Product List | Glossary On
Versions: 1 2 3 4 5 6 7 8 9 10 11 12 13 14 15 16 17 18 19 20 21 22 23 24
000
FTAK31 PANC 201843 AAA
TAFAAQ
TAF AMD
PAAQ 201843Z 2019/2118 04020G30KT P6SM SCT200
      TEMPO 2019/2023 04030G40KT
     FM210800 04010KT P6SM SKC
     FM211200 VRB03KT P6SM SKC=

USA.gov is the U.S. government's official web portal to all federal, state and local government web resources and services.